createdAt,value
2023-02-13T00:01:45.792Z,4.51
2023-02-13T00:04:15.666Z,4.48
2023-02-13T00:06:45.120Z,4.45
2023-02-13T00:09:14.778Z,4.41
2023-02-13T00:11:43.748Z,4.40
2023-02-13T00:14:12.486Z,4.41
2023-02-13T00:16:41.577Z,4.38
2023-02-13T00:19:10.440Z,4.33
2023-02-13T00:21:39.217Z,4.28
2023-02-13T00:24:08.223Z,4.23
2023-02-13T00:26:37.291Z,4.20
2023-02-13T00:29:06.626Z,4.10
2023-02-13T00:31:35.897Z,4.06
2023-02-13T00:34:04.534Z,4.00
2023-02-13T00:36:34.302Z,4.01
2023-02-13T00:39:03.223Z,4.00
2023-02-13T00:41:32.604Z,3.95
2023-02-13T00:44:01.568Z,3.88
2023-02-13T00:46:30.602Z,3.84
2023-02-13T00:49:00.252Z,3.81
2023-02-13T00:51:29.092Z,3.78
2023-02-13T00:53:58.038Z,3.74
2023-02-13T00:56:26.856Z,3.68
2023-02-13T00:58:56.316Z,3.64
2023-02-13T01:01:26.842Z,3.61
2023-02-13T01:03:55.808Z,3.56
2023-02-13T01:06:24.631Z,3.57
2023-02-13T01:08:53.391Z,3.56
2023-02-13T01:11:22.224Z,3.60
2023-02-13T01:13:51.909Z,3.58
2023-02-13T01:16:20.991Z,3.47
2023-02-13T01:18:50.692Z,3.40
2023-02-13T01:21:23.549Z,3.36
2023-02-13T01:23:52.667Z,3.34
2023-02-13T01:26:24.672Z,3.28
2023-02-13T01:28:55.527Z,3.20
2023-02-13T01:31:26.080Z,3.09
2023-02-13T01:33:58.632Z,2.99
2023-02-13T01:36:30.083Z,2.88
2023-02-13T01:38:59.855Z,2.77
2023-02-13T01:41:29.083Z,2.75
2023-02-13T01:44:00.187Z,2.77
2023-02-13T01:46:39.244Z,2.85
2023-02-13T01:49:13.708Z,2.89
2023-02-13T01:51:44.418Z,2.86
2023-02-13T01:54:20.202Z,2.78
2023-02-13T01:56:58.111Z,2.70
2023-02-13T01:59:34.257Z,2.69
2023-02-13T02:02:03.995Z,2.70
2023-02-13T02:04:36.518Z,2.71
2023-02-13T02:07:16.460Z,2.69
2023-02-13T02:09:46.629Z,2.64
2023-02-13T02:12:41.477Z,2.62
2023-02-13T02:15:10.526Z,2.56
2023-02-13T02:17:39.339Z,2.66
2023-02-13T02:20:20.815Z,2.69
2023-02-13T02:23:17.993Z,2.63
2023-02-13T02:26:18.052Z,2.52
2023-02-13T02:29:05.546Z,2.39
2023-02-13T02:31:56.046Z,2.34
2023-02-13T02:34:43.110Z,2.34
2023-02-13T02:37:40.879Z,2.39
2023-02-13T02:40:12.317Z,2.33
2023-02-13T02:43:03.909Z,2.34
2023-02-13T02:46:10.080Z,2.25
2023-02-13T02:49:12.830Z,2.24
2023-02-13T02:52:02.968Z,2.35
2023-02-13T02:55:02.364Z,2.49
2023-02-13T02:57:53.214Z,2.54
2023-02-13T03:00:44.129Z,2.60
2023-02-13T03:03:39.730Z,2.65
2023-02-13T03:06:20.562Z,2.66
2023-02-13T03:09:16.937Z,2.68
2023-02-13T03:12:09.523Z,2.64
2023-02-13T03:14:38.784Z,2.60
2023-02-13T03:17:32.237Z,2.58
2023-02-13T03:20:19.997Z,2.58
2023-02-13T03:22:51.692Z,2.60
2023-02-13T03:25:48.138Z,2.66
2023-02-13T03:28:41.951Z,2.61
2023-02-13T03:31:39.967Z,2.56
2023-02-13T03:34:19.864Z,2.47
2023-02-13T03:37:20.986Z,2.47
2023-02-13T03:40:17.417Z,2.41
2023-02-13T03:42:54.559Z,2.33
2023-02-13T03:45:53.620Z,2.25
2023-02-13T03:48:48.669Z,2.15
2023-02-13T03:51:27.177Z,2.11
2023-02-13T03:54:03.533Z,2.13
2023-02-13T03:56:54.812Z,2.08
2023-02-13T03:59:30.787Z,2.02
2023-02-13T04:02:14.380Z,1.99
2023-02-13T04:04:54.090Z,1.95
2023-02-13T04:07:32.260Z,2.02
2023-02-13T04:10:06.843Z,2.13
2023-02-13T04:12:50.703Z,2.19
2023-02-13T04:15:33.543Z,2.10
2023-02-13T04:18:14.245Z,1.97
2023-02-13T04:20:43.681Z,1.84
2023-02-13T04:23:14.440Z,1.76
2023-02-13T04:25:47.240Z,1.67
2023-02-13T04:28:16.431Z,1.62
2023-02-13T04:30:45.631Z,1.54
2023-02-13T04:33:14.561Z,1.47
2023-02-13T04:35:43.527Z,1.46
2023-02-13T04:38:12.774Z,1.52
2023-02-13T04:40:42.015Z,1.63
2023-02-13T04:43:11.301Z,1.70
2023-02-13T04:45:40.149Z,1.76
2023-02-13T04:48:09.755Z,1.70
2023-02-13T04:50:38.308Z,1.72
2023-02-13T04:53:07.550Z,1.72
2023-02-13T04:55:36.343Z,1.67
2023-02-13T04:58:05.233Z,1.63
2023-02-13T05:00:33.942Z,1.46
2023-02-13T05:03:10.946Z,1.31
2023-02-13T05:05:41.111Z,1.20
2023-02-13T05:08:10.323Z,1.17
2023-02-13T05:10:39.202Z,1.18
2023-02-13T05:13:08.283Z,1.25
2023-02-13T05:15:37.230Z,1.32
2023-02-13T05:18:06.233Z,1.36
2023-02-13T05:20:34.882Z,1.43
2023-02-13T05:23:22.449Z,1.54
2023-02-13T05:25:51.424Z,1.64
2023-02-13T05:28:39.771Z,1.69
2023-02-13T05:31:09.682Z,1.60
2023-02-13T05:33:38.766Z,1.54
2023-02-13T05:36:08.393Z,1.57
2023-02-13T05:38:37.529Z,1.62
2023-02-13T05:41:06.576Z,1.55
2023-02-13T05:43:35.404Z,1.45
2023-02-13T05:46:09.340Z,1.36
2023-02-13T05:48:38.502Z,1.24
2023-02-13T05:51:07.700Z,1.20
2023-02-13T05:53:36.983Z,1.11
2023-02-13T05:56:07.208Z,1.04
2023-02-13T05:58:37.292Z,1.01
2023-02-13T06:01:06.312Z,1.00
2023-02-13T06:03:35.156Z,0.91
2023-02-13T06:06:04.128Z,0.88
2023-02-13T06:08:33.226Z,0.84
2023-02-13T06:11:02.333Z,0.79
2023-02-13T06:13:32.226Z,0.76
2023-02-13T06:16:01.138Z,0.69
2023-02-13T06:18:30.227Z,0.74
2023-02-13T06:21:00.044Z,0.87
2023-02-13T06:23:29.508Z,0.89
2023-02-13T06:26:02.143Z,0.80
2023-02-13T06:28:31.421Z,0.76
2023-02-13T06:31:01.437Z,0.75
2023-02-13T06:33:31.163Z,0.85
2023-02-13T06:36:00.198Z,0.93
2023-02-13T06:38:29.421Z,0.98
2023-02-13T06:41:04.935Z,1.00
2023-02-13T06:43:33.771Z,0.97
2023-02-13T06:46:07.738Z,1.25
2023-02-13T06:48:36.968Z,2.37
2023-02-13T06:51:06.159Z,3.58
2023-02-13T06:53:35.117Z,4.64
2023-02-13T06:56:07.024Z,5.58
2023-02-13T06:58:36.472Z,6.40
2023-02-13T07:01:05.653Z,7.25
2023-02-13T07:03:34.548Z,8.07
2023-02-13T07:06:03.588Z,8.84
2023-02-13T07:08:32.828Z,9.40
2023-02-13T07:11:01.774Z,10.08
2023-02-13T07:13:30.448Z,10.82
2023-02-13T07:16:01.712Z,11.52
2023-02-13T07:18:30.626Z,12.20
2023-02-13T07:20:59.781Z,13.03
2023-02-13T07:23:29.020Z,13.87
2023-02-13T07:26:00.662Z,14.61
2023-02-13T07:28:30.253Z,15.13
2023-02-13T07:31:04.536Z,15.45
2023-02-13T07:33:37.027Z,15.85
2023-02-13T07:36:06.661Z,16.39
2023-02-13T07:38:35.711Z,16.97
2023-02-13T07:41:05.456Z,17.56
2023-02-13T07:43:34.737Z,18.12
2023-02-13T07:46:04.987Z,18.61
2023-02-13T07:48:34.368Z,19.06
2023-02-13T07:51:04.864Z,19.47
2023-02-13T07:53:34.041Z,19.56
2023-02-13T07:56:08.075Z,19.86
2023-02-13T07:58:38.326Z,20.04
2023-02-13T08:01:11.681Z,20.55
2023-02-13T08:03:41.067Z,21.23
2023-02-13T08:06:10.581Z,21.61
2023-02-13T08:08:39.623Z,22.03
2023-02-13T08:11:42.894Z,22.36
2023-02-13T08:14:12.248Z,22.30
2023-02-13T08:16:41.018Z,22.80
2023-02-13T08:19:10.468Z,23.13
2023-02-13T08:21:41.163Z,23.47
2023-02-13T08:24:11.546Z,23.93
2023-02-13T08:26:40.968Z,24.43
2023-02-13T08:29:11.118Z,24.66
2023-02-13T08:31:40.044Z,24.96
2023-02-13T08:34:09.119Z,25.36
2023-02-13T08:36:38.235Z,25.81
2023-02-13T08:39:07.380Z,26.01
2023-02-13T08:41:36.565Z,26.18
2023-02-13T08:44:05.936Z,26.45
2023-02-13T08:46:35.365Z,26.57
2023-02-13T08:49:06.054Z,27.04
2023-02-13T08:51:35.575Z,27.38
2023-02-13T08:54:05.251Z,27.63
2023-02-13T08:56:36.038Z,28.21
2023-02-13T08:59:05.532Z,28.55
2023-02-13T09:01:35.198Z,29.05
2023-02-13T09:04:04.880Z,29.39
2023-02-13T09:06:33.823Z,29.88
2023-02-13T09:09:05.216Z,30.28
2023-02-13T09:11:34.203Z,30.59
2023-02-13T09:14:03.358Z,31.39
2023-02-13T09:16:33.156Z,31.86
2023-02-13T09:19:02.231Z,32.29
2023-02-13T09:21:31.856Z,32.65
2023-02-13T09:24:00.861Z,32.75
2023-02-13T09:26:29.816Z,33.25
2023-02-13T09:28:58.820Z,33.57
2023-02-13T09:31:29.619Z,33.77
2023-02-13T09:33:59.014Z,33.83
2023-02-13T09:36:28.425Z,33.94
2023-02-13T09:38:58.732Z,34.04
2023-02-13T09:41:34.972Z,34.34
2023-02-13T09:44:43.957Z,34.49
2023-02-13T09:47:29.486Z,34.36
2023-02-13T09:50:07.436Z,34.63
2023-02-13T09:52:39.342Z,34.44
2023-02-13T09:55:20.525Z,34.71
2023-02-13T09:58:04.102Z,34.80
2023-02-13T10:00:51.420Z,35.04
2023-02-13T10:03:24.160Z,35.26
2023-02-13T10:06:27.024Z,35.90
2023-02-13T10:09:11.121Z,36.12
2023-02-13T10:12:02.323Z,37.00
2023-02-13T10:14:43.535Z,37.75
2023-02-13T10:17:18.750Z,38.11
2023-02-13T10:19:58.862Z,38.13
2023-02-13T10:22:43.801Z,38.00
2023-02-13T10:25:25.072Z,37.74
2023-02-13T10:28:01.164Z,37.84
2023-02-13T10:30:40.311Z,37.92
2023-02-13T10:33:21.565Z,38.10
2023-02-13T10:36:03.064Z,38.58
2023-02-13T10:38:35.650Z,38.93
2023-02-13T10:41:30.710Z,38.84
2023-02-13T10:44:21.535Z,38.48
2023-02-13T10:47:09.376Z,38.45
2023-02-13T10:50:21.589Z,38.91
2023-02-13T10:53:08.886Z,38.81
2023-02-13T10:55:59.132Z,38.27
2023-02-13T10:58:40.541Z,38.02
2023-02-13T11:01:36.874Z,38.51
2023-02-13T11:04:15.857Z,38.64
2023-02-13T11:07:06.680Z,38.68
2023-02-13T11:09:40.797Z,38.25
2023-02-13T11:12:32.264Z,38.28
2023-02-13T11:15:08.639Z,38.76
2023-02-13T11:17:44.771Z,39.03
2023-02-13T11:20:31.855Z,39.60
2023-02-13T11:23:33.403Z,39.91
2023-02-13T11:26:05.197Z,39.24
2023-02-13T11:28:48.053Z,39.57
2023-02-13T11:31:22.985Z,39.63
2023-02-13T11:33:53.409Z,38.92
2023-02-13T11:36:27.272Z,38.46
2023-02-13T11:39:18.600Z,38.47
2023-02-13T11:41:51.202Z,38.21
2023-02-13T11:44:30.842Z,38.23
2023-02-13T11:47:05.921Z,37.56
2023-02-13T11:49:39.433Z,36.78
2023-02-13T11:52:24.239Z,37.01
2023-02-13T11:55:05.098Z,37.28
2023-02-13T11:57:38.014Z,37.28
2023-02-13T12:00:37.982Z,37.69
2023-02-13T12:03:27.644Z,37.55
2023-02-13T12:06:17.500Z,37.44
2023-02-13T12:08:50.107Z,37.84
2023-02-13T12:11:25.459Z,38.19
2023-02-13T12:13:56.030Z,38.06
2023-02-13T12:16:34.867Z,38.21
2023-02-13T12:19:18.068Z,37.99
2023-02-13T12:22:08.196Z,37.88
2023-02-13T12:25:06.960Z,37.54
2023-02-13T12:27:55.130Z,37.39
2023-02-13T12:30:43.576Z,37.24
2023-02-13T12:33:41.059Z,37.14
2023-02-13T12:36:25.604Z,37.30
2023-02-13T12:39:13.409Z,37.49
2023-02-13T12:42:28.223Z,36.14
2023-02-13T12:45:09.540Z,35.78
2023-02-13T12:48:03.150Z,36.03
2023-02-13T12:51:15.958Z,36.39
2023-02-13T12:54:09.131Z,36.87
2023-02-13T12:57:02.903Z,36.67
2023-02-13T13:00:07.555Z,36.69
2023-02-13T13:02:46.061Z,36.46
2023-02-13T13:05:50.635Z,36.62
2023-02-13T13:08:37.019Z,36.92
2023-02-13T13:11:24.686Z,37.06
2023-02-13T13:14:12.222Z,36.49
2023-02-13T13:16:55.738Z,36.57
2023-02-13T13:19:51.980Z,37.10
2023-02-13T13:22:30.891Z,37.01
2023-02-13T13:25:15.153Z,36.82
2023-02-13T13:27:47.334Z,36.71
2023-02-13T13:30:27.601Z,36.60
2023-02-13T13:33:04.903Z,36.09
2023-02-13T13:35:36.586Z,33.47
2023-02-13T13:38:21.674Z,33.86
2023-02-13T13:41:06.614Z,34.13
2023-02-13T13:43:50.328Z,34.81
2023-02-13T13:46:32.337Z,34.96
2023-02-13T13:49:07.382Z,34.95
2023-02-13T13:51:37.305Z,34.48
2023-02-13T13:54:06.212Z,34.26
2023-02-13T13:56:53.439Z,34.46
2023-02-13T13:59:34.667Z,34.20
2023-02-13T14:02:19.107Z,34.14
2023-02-13T14:05:03.956Z,34.24
2023-02-13T14:07:45.100Z,34.14
2023-02-13T14:10:24.153Z,33.91
2023-02-13T14:12:56.301Z,33.93
2023-02-13T14:15:35.702Z,34.15
2023-02-13T14:18:08.694Z,34.19
2023-02-13T14:20:52.423Z,33.78
2023-02-13T14:23:30.550Z,32.97
2023-02-13T14:26:17.807Z,32.41
2023-02-13T14:28:49.814Z,32.43
2023-02-13T14:31:24.398Z,32.50
2023-02-13T14:34:20.011Z,32.33
2023-02-13T14:37:08.508Z,32.37
2023-02-13T14:39:42.937Z,32.33
2023-02-13T14:42:29.209Z,32.05
2023-02-13T14:45:01.871Z,31.50
2023-02-13T14:47:45.428Z,31.40
2023-02-13T14:50:24.020Z,31.13
2023-02-13T14:52:57.420Z,31.00
2023-02-13T14:55:31.763Z,30.95
2023-02-13T14:58:24.264Z,30.75
2023-02-13T15:01:00.666Z,30.49
2023-02-13T15:04:21.221Z,29.94
2023-02-13T15:06:55.416Z,29.72
2023-02-13T15:09:39.656Z,29.86
2023-02-13T15:12:27.020Z,29.61
2023-02-13T15:14:57.490Z,29.38
2023-02-13T15:17:31.179Z,29.27
2023-02-13T15:20:08.200Z,29.21
2023-02-13T15:22:42.723Z,29.08
2023-02-13T15:25:30.743Z,28.91
2023-02-13T15:28:05.967Z,28.57
2023-02-13T15:30:38.879Z,27.88
2023-02-13T15:33:20.089Z,27.17
2023-02-13T15:35:58.221Z,27.04
2023-02-13T15:38:40.053Z,27.09
2023-02-13T15:41:21.196Z,26.83
2023-02-13T15:43:55.880Z,26.53
2023-02-13T15:46:26.963Z,26.20
2023-02-13T15:49:07.023Z,26.10
2023-02-13T15:51:37.047Z,25.91
2023-02-13T15:54:26.758Z,25.71
2023-02-13T15:57:00.077Z,25.29
2023-02-13T15:59:40.586Z,24.89
2023-02-13T16:02:24.942Z,24.54
2023-02-13T16:04:57.012Z,24.18
2023-02-13T16:07:27.452Z,23.99
2023-02-13T16:10:37.181Z,23.70
2023-02-13T16:13:16.604Z,23.06
2023-02-13T16:15:45.717Z,22.63
2023-02-13T16:18:20.632Z,22.28
2023-02-13T16:20:55.601Z,21.83
2023-02-13T16:23:25.541Z,21.32
2023-02-13T16:26:04.735Z,20.69
2023-02-13T16:28:35.144Z,20.01
2023-02-13T16:31:05.730Z,19.57
2023-02-13T16:33:42.032Z,19.16
2023-02-13T16:36:11.492Z,18.70
2023-02-13T16:38:42.422Z,18.30
2023-02-13T16:41:22.747Z,17.83
2023-02-13T16:44:01.024Z,17.48
2023-02-13T16:46:36.595Z,17.21
2023-02-13T16:49:09.447Z,16.85
2023-02-13T16:51:47.765Z,16.46
2023-02-13T16:54:30.787Z,16.10
2023-02-13T16:57:14.513Z,15.78
2023-02-13T16:59:58.861Z,15.47
2023-02-13T17:02:35.364Z,15.17
2023-02-13T17:05:10.888Z,14.87
2023-02-13T17:07:49.778Z,14.61
2023-02-13T17:10:35.921Z,14.39
2023-02-13T17:13:14.284Z,14.14
2023-02-13T17:15:47.335Z,13.90
2023-02-13T17:18:17.394Z,13.79
2023-02-13T17:20:47.812Z,13.67
2023-02-13T17:23:22.175Z,13.44
2023-02-13T17:25:54.244Z,13.26
2023-02-13T17:28:30.745Z,13.04
2023-02-13T17:31:02.519Z,12.86
2023-02-13T17:33:37.452Z,12.74
2023-02-13T17:36:07.601Z,12.61
2023-02-13T17:38:37.272Z,12.52
2023-02-13T17:41:17.222Z,12.37
2023-02-13T17:43:46.983Z,12.20
2023-02-13T17:46:18.052Z,12.11
2023-02-13T17:48:47.685Z,12.01
2023-02-13T17:51:17.676Z,11.94
2023-02-13T17:53:47.785Z,11.71
2023-02-13T17:56:18.503Z,11.42
2023-02-13T17:58:48.922Z,11.24
2023-02-13T18:01:19.885Z,11.13
2023-02-13T18:03:53.214Z,11.07
2023-02-13T18:06:23.827Z,10.99
2023-02-13T18:08:53.847Z,10.92
2023-02-13T18:11:24.109Z,10.79
2023-02-13T18:13:53.928Z,10.69
2023-02-13T18:16:26.191Z,10.58
2023-02-13T18:18:57.410Z,10.52
2023-02-13T18:21:28.176Z,10.44
2023-02-13T18:23:58.268Z,10.38
2023-02-13T18:26:29.040Z,10.38
2023-02-13T18:28:58.889Z,10.40
2023-02-13T18:31:30.527Z,10.38
2023-02-13T18:33:59.830Z,10.26
2023-02-13T18:36:29.558Z,10.18
2023-02-13T18:38:59.684Z,10.14
2023-02-13T18:41:30.286Z,10.05
2023-02-13T18:44:01.241Z,10.00
2023-02-13T18:46:32.738Z,9.95
2023-02-13T18:49:03.116Z,9.88
2023-02-13T18:51:32.994Z,9.83
2023-02-13T18:54:02.842Z,9.82
2023-02-13T18:56:32.564Z,9.83
2023-02-13T18:59:01.769Z,9.80
2023-02-13T19:01:31.503Z,9.80
2023-02-13T19:04:02.904Z,9.72
2023-02-13T19:06:33.103Z,9.70
2023-02-13T19:09:02.691Z,9.68
2023-02-13T19:11:34.780Z,9.63
2023-02-13T19:14:03.982Z,9.54
2023-02-13T19:16:35.639Z,9.41
2023-02-13T19:19:08.903Z,9.31
2023-02-13T19:21:40.364Z,9.13
2023-02-13T19:24:11.972Z,9.01
2023-02-13T19:26:42.710Z,8.87
2023-02-13T19:29:11.749Z,8.73
2023-02-13T19:31:42.165Z,8.62
2023-02-13T19:34:12.227Z,8.55
2023-02-13T19:36:43.225Z,8.51
2023-02-13T19:39:12.865Z,8.45
2023-02-13T19:41:42.731Z,8.33
2023-02-13T19:44:13.266Z,8.18
2023-02-13T19:46:44.292Z,8.07
2023-02-13T19:49:13.774Z,7.98
2023-02-13T19:51:47.582Z,7.86
2023-02-13T19:54:17.171Z,7.80
2023-02-13T19:56:48.234Z,7.82
2023-02-13T19:59:17.486Z,7.80
2023-02-13T20:01:47.259Z,7.66
2023-02-13T20:04:17.055Z,7.59
2023-02-13T20:06:46.338Z,7.51
2023-02-13T20:09:17.496Z,7.40
2023-02-13T20:11:48.305Z,7.27
2023-02-13T20:14:18.776Z,7.26
2023-02-13T20:16:49.536Z,7.22
2023-02-13T20:19:20.795Z,7.23
2023-02-13T20:21:52.097Z,7.26
2023-02-13T20:24:22.858Z,7.16
2023-02-13T20:26:53.987Z,7.08
2023-02-13T20:29:24.781Z,7.01
2023-02-13T20:31:55.600Z,7.00
2023-02-13T20:34:29.649Z,7.00
2023-02-13T20:37:02.593Z,6.96
2023-02-13T20:39:34.428Z,6.92
2023-02-13T20:42:04.995Z,6.93
2023-02-13T20:44:35.372Z,6.89
2023-02-13T20:47:04.680Z,6.81
2023-02-13T20:49:34.345Z,6.70
2023-02-13T20:52:04.456Z,6.66
2023-02-13T20:54:35.005Z,6.62
2023-02-13T20:57:07.700Z,6.50
2023-02-13T20:59:37.430Z,6.30
2023-02-13T21:02:08.619Z,6.11
2023-02-13T21:04:40.412Z,5.92
2023-02-13T21:07:10.879Z,5.79
2023-02-13T21:09:40.817Z,5.72
2023-02-13T21:12:11.106Z,5.68
2023-02-13T21:14:41.862Z,5.66
2023-02-13T21:17:11.556Z,5.64
2023-02-13T21:19:41.307Z,5.62
2023-02-13T21:22:14.662Z,5.63
2023-02-13T21:24:44.490Z,5.65
2023-02-13T21:27:13.967Z,5.63
2023-02-13T21:29:42.982Z,5.65
2023-02-13T21:32:12.580Z,5.59
2023-02-13T21:34:43.071Z,5.59
2023-02-13T21:37:12.868Z,5.42
2023-02-13T21:39:42.601Z,5.33
2023-02-13T21:42:13.573Z,5.28
2023-02-13T21:44:44.668Z,5.17
2023-02-13T21:47:17.060Z,5.04
2023-02-13T21:49:47.264Z,4.96
2023-02-13T21:52:17.483Z,4.99
2023-02-13T21:54:48.436Z,5.05
2023-02-13T21:57:17.798Z,5.08
2023-02-13T21:59:46.943Z,5.07
2023-02-13T22:02:18.244Z,5.09
2023-02-13T22:04:47.829Z,5.05
2023-02-13T22:07:18.311Z,5.02
2023-02-13T22:09:49.925Z,4.92
2023-02-13T22:12:19.169Z,4.84
2023-02-13T22:14:48.517Z,4.85
2023-02-13T22:17:19.391Z,4.84
2023-02-13T22:19:50.947Z,4.83
2023-02-13T22:22:19.862Z,4.73
2023-02-13T22:24:49.881Z,4.66
2023-02-13T22:27:19.363Z,4.62
2023-02-13T22:29:48.267Z,4.63
2023-02-13T22:32:18.713Z,4.61
2023-02-13T22:34:47.267Z,4.60
2023-02-13T22:37:16.224Z,4.63
2023-02-13T22:39:45.581Z,4.64
2023-02-13T22:42:15.389Z,4.58
2023-02-13T22:44:45.180Z,4.52
2023-02-13T22:47:14.601Z,4.47
2023-02-13T22:49:43.810Z,4.42
2023-02-13T22:52:13.011Z,4.37
2023-02-13T22:54:42.716Z,4.31
2023-02-13T22:57:11.385Z,4.23
2023-02-13T22:59:40.626Z,4.24
2023-02-13T23:02:09.807Z,4.23
2023-02-13T23:04:39.629Z,4.16
2023-02-13T23:07:08.829Z,4.09
2023-02-13T23:09:38.014Z,4.03
2023-02-13T23:12:26.318Z,3.93
2023-02-13T23:14:58.529Z,3.78
2023-02-13T23:17:53.119Z,3.75
2023-02-13T23:20:24.573Z,3.69
2023-02-13T23:22:56.972Z,3.76
2023-02-13T23:25:26.629Z,3.79
2023-02-13T23:27:59.779Z,3.81
2023-02-13T23:30:31.017Z,3.83
2023-02-13T23:33:02.240Z,3.83
2023-02-13T23:35:31.184Z,3.80
2023-02-13T23:38:00.237Z,3.77
2023-02-13T23:40:29.420Z,3.77
2023-02-13T23:42:58.597Z,3.70
2023-02-13T23:45:27.941Z,3.66
2023-02-13T23:47:57.195Z,3.61
2023-02-13T23:50:26.305Z,3.62
2023-02-13T23:52:55.699Z,3.62
2023-02-13T23:55:24.926Z,3.64
2023-02-13T23:57:53.918Z,3.62
